sensor_id;sensor_type;location;lat;lon;timestamp;pressure;altitude;pressure_sealevel;temperature;humidity
25855;BME280;13680;49.936;11.344;2023-02-18T00:02:06;97270.81;;;11.13;98.23
25855;BME280;13680;49.936;11.344;2023-02-18T00:04:31;97275.97;;;11.09;98.07
25855;BME280;13680;49.936;11.344;2023-02-18T00:06:58;97277.47;;;10.96;98.26
25855;BME280;13680;49.936;11.344;2023-02-18T00:09:24;97273.00;;;10.87;99.05
25855;BME280;13680;49.936;11.344;2023-02-18T00:11:49;97268.13;;;10.70;100.00
25855;BME280;13680;49.936;11.344;2023-02-18T00:14:15;97275.53;;;10.78;98.71
25855;BME280;13680;49.936;11.344;2023-02-18T00:16:42;97278.81;;;10.75;100.00
25855;BME280;13680;49.936;11.344;2023-02-18T00:19:11;97266.00;;;10.67;100.00
25855;BME280;13680;49.936;11.344;2023-02-18T00:21:37;97266.97;;;10.52;100.00
25855;BME280;13680;49.936;11.344;2023-02-18T00:24:04;97273.75;;;10.92;99.90
25855;BME280;13680;49.936;11.344;2023-02-18T00:26:30;97268.59;;;10.77;100.00
25855;BME280;13680;49.936;11.344;2023-02-18T00:28:56;97271.97;;;11.07;98.14
25855;BME280;13680;49.936;11.344;2023-02-18T00:31:29;97270.56;;;11.09;97.74
25855;BME280;13680;49.936;11.344;2023-02-18T00:33:56;97282.59;;;11.17;97.50
25855;BME280;13680;49.936;11.344;2023-02-18T00:36:23;97278.19;;;10.83;98.99
25855;BME280;13680;49.936;11.344;2023-02-18T00:38:51;97270.81;;;11.13;98.16
25855;BME280;13680;49.936;11.344;2023-02-18T00:41:17;97272.69;;;10.93;98.78
25855;BME280;13680;49.936;11.344;2023-02-18T00:43:43;97273.72;;;10.73;99.99
25855;BME280;13680;49.936;11.344;2023-02-18T00:46:08;97269.25;;;10.88;99.42
25855;BME280;13680;49.936;11.344;2023-02-18T00:48:34;97269.25;;;10.88;98.98
25855;BME280;13680;49.936;11.344;2023-02-18T00:51:00;97261.41;;;10.91;98.94
25855;BME280;13680;49.936;11.344;2023-02-18T00:53:27;97266.06;;;10.86;99.92
25855;BME280;13680;49.936;11.344;2023-02-18T00:55:53;97263.44;;;10.80;98.94
25855;BME280;13680;49.936;11.344;2023-02-18T00:58:18;97260.84;;;10.70;99.99
25855;BME280;13680;49.936;11.344;2023-02-18T01:00:43;97258.16;;;10.70;99.23
25855;BME280;13680;49.936;11.344;2023-02-18T01:03:09;97260.03;;;10.94;98.06
25855;BME280;13680;49.936;11.344;2023-02-18T01:05:36;97259.75;;;10.47;100.00
25855;BME280;13680;49.936;11.344;2023-02-18T01:08:02;97259.53;;;10.68;99.68
25855;BME280;13680;49.936;11.344;2023-02-18T01:10:27;97267.22;;;10.55;100.00
25855;BME280;13680;49.936;11.344;2023-02-18T01:12:53;97264.69;;;10.40;99.94
25855;BME280;13680;49.936;11.344;2023-02-18T01:15:18;97259.09;;;10.36;100.00
25855;BME280;13680;49.936;11.344;2023-02-18T01:17:44;97266.47;;;10.50;100.00
25855;BME280;13680;49.936;11.344;2023-02-18T01:20:10;97261.38;;;10.48;100.00
25855;BME280;13680;49.936;11.344;2023-02-18T01:22:36;97267.63;;;10.87;98.37
25855;BME280;13680;49.936;11.344;2023-02-18T01:25:01;97262.19;;;10.92;98.06
25855;BME280;13680;49.936;11.344;2023-02-18T01:27:27;97262.44;;;10.71;100.00
25855;BME280;13680;49.936;11.344;2023-02-18T01:29:53;97263.16;;;11.01;97.68
25855;BME280;13680;49.936;11.344;2023-02-18T01:32:19;97267.94;;;10.85;98.42
25855;BME280;13680;49.936;11.344;2023-02-18T01:34:44;97261.91;;;10.93;98.41
25855;BME280;13680;49.936;11.344;2023-02-18T01:37:10;97258.91;;;10.76;98.97
25855;BME280;13680;49.936;11.344;2023-02-18T01:39:35;97265.13;;;10.71;100.00
25855;BME280;13680;49.936;11.344;2023-02-18T01:42:01;97261.53;;;10.81;99.00
25855;BME280;13680;49.936;11.344;2023-02-18T01:44:27;97261.66;;;10.71;100.00
25855;BME280;13680;49.936;11.344;2023-02-18T01:46:52;97256.41;;;10.60;100.00
25855;BME280;13680;49.936;11.344;2023-02-18T01:49:26;97253.13;;;10.63;100.00
25855;BME280;13680;49.936;11.344;2023-02-18T01:51:56;97244.06;;;10.78;100.00
25855;BME280;13680;49.936;11.344;2023-02-18T01:54:29;97247.69;;;10.69;100.00
25855;BME280;13680;49.936;11.344;2023-02-18T01:57:09;97245.97;;;10.97;98.50
25855;BME280;13680;49.936;11.344;2023-02-18T01:59:41;97240.59;;;10.97;97.93
25855;BME280;13680;49.936;11.344;2023-02-18T02:02:11;97236.84;;;10.74;100.00
25855;BME280;13680;49.936;11.344;2023-02-18T02:04:37;97233.09;;;10.75;100.00
25855;BME280;13680;49.936;11.344;2023-02-18T02:07:03;97231.72;;;10.96;98.47
25855;BME280;13680;49.936;11.344;2023-02-18T02:09:30;97228.94;;;10.83;99.24
25855;BME280;13680;49.936;11.344;2023-02-18T02:18:32;97229.50;;;11.04;98.06
25855;BME280;13680;49.936;11.344;2023-02-18T02:21:30;97233.22;;;10.64;100.00
25855;BME280;13680;49.936;11.344;2023-02-18T02:24:28;97230.34;;;10.80;100.00
25855;BME280;13680;49.936;11.344;2023-02-18T02:27:12;97227.94;;;10.78;99.84
25855;BME280;13680;49.936;11.344;2023-02-18T02:35:18;97222.91;;;10.72;100.00
25855;BME280;13680;49.936;11.344;2023-02-18T02:37:55;97214.72;;;10.82;100.00
25855;BME280;13680;49.936;11.344;2023-02-18T02:40:45;97220.22;;;10.72;99.68
25855;BME280;13680;49.936;11.344;2023-02-18T02:43:20;97211.94;;;10.87;99.47
25855;BME280;13680;49.936;11.344;2023-02-18T02:46:05;97220.59;;;10.84;99.52
25855;BME280;13680;49.936;11.344;2023-02-18T02:48:44;97215.00;;;10.80;99.28
25855;BME280;13680;49.936;11.344;2023-02-18T02:51:15;97207.34;;;10.69;99.79
25855;BME280;13680;49.936;11.344;2023-02-18T02:53:42;97209.63;;;10.37;100.00
25855;BME280;13680;49.936;11.344;2023-02-18T02:56:17;97211.94;;;10.68;99.90
25855;BME280;13680;49.936;11.344;2023-02-18T02:58:44;97205.31;;;10.60;100.00
25855;BME280;13680;49.936;11.344;2023-02-18T03:10:04;97209.59;;;11.00;97.72
25855;BME280;13680;49.936;11.344;2023-02-18T03:18:00;97212.41;;;10.70;98.76
25855;BME280;13680;49.936;11.344;2023-02-18T03:20:32;97210.25;;;10.72;99.06
25855;BME280;13680;49.936;11.344;2023-02-18T03:23:01;97214.84;;;10.72;99.56
25855;BME280;13680;49.936;11.344;2023-02-18T03:25:30;97217.09;;;10.84;98.56
25855;BME280;13680;49.936;11.344;2023-02-18T03:28:11;97209.13;;;10.97;97.24
25855;BME280;13680;49.936;11.344;2023-02-18T03:30:45;97219.50;;;10.85;97.73
25855;BME280;13680;49.936;11.344;2023-02-18T03:33:16;97219.13;;;10.73;98.81
25855;BME280;13680;49.936;11.344;2023-02-18T03:35:43;97219.88;;;10.97;96.89
25855;BME280;13680;49.936;11.344;2023-02-18T03:38:44;97221.03;;;10.91;97.56
25855;BME280;13680;49.936;11.344;2023-02-18T03:41:13;97212.34;;;10.75;98.75
25855;BME280;13680;49.936;11.344;2023-02-18T03:43:39;97214.56;;;10.73;99.03
25855;BME280;13680;49.936;11.344;2023-02-18T03:46:05;97210.97;;;10.78;99.26
25855;BME280;13680;49.936;11.344;2023-02-18T03:48:30;97216.50;;;10.87;97.83
25855;BME280;13680;49.936;11.344;2023-02-18T03:50:56;97216.53;;;11.06;96.57
25855;BME280;13680;49.936;11.344;2023-02-18T03:53:21;97213.03;;;10.86;98.22
25855;BME280;13680;49.936;11.344;2023-02-18T03:55:47;97218.13;;;11.07;96.48
25855;BME280;13680;49.936;11.344;2023-02-18T03:58:12;97214.72;;;10.82;98.71
25855;BME280;13680;49.936;11.344;2023-02-18T04:00:37;97208.81;;;10.80;99.24
25855;BME280;13680;49.936;11.344;2023-02-18T04:03:03;97219.56;;;10.80;99.46
25855;BME280;13680;49.936;11.344;2023-02-18T04:05:28;97219.13;;;10.73;100.00
25855;BME280;13680;49.936;11.344;2023-02-18T04:07:54;97214.72;;;10.34;100.00
25855;BME280;13680;49.936;11.344;2023-02-18T04:10:19;97213.69;;;10.97;99.21
25855;BME280;13680;49.936;11.344;2023-02-18T04:12:46;97222.94;;;10.91;98.52
25855;BME280;13680;49.936;11.344;2023-02-18T04:15:12;97220.91;;;11.02;97.68
25855;BME280;13680;49.936;11.344;2023-02-18T04:17:38;97218.34;;;11.10;96.71
25855;BME280;13680;49.936;11.344;2023-02-18T04:20:04;97227.34;;;10.81;98.67
25855;BME280;13680;49.936;11.344;2023-02-18T04:22:29;97229.97;;;10.87;98.82
25855;BME280;13680;49.936;11.344;2023-02-18T04:24:55;97220.91;;;11.02;97.30
25855;BME280;13680;49.936;11.344;2023-02-18T04:27:20;97222.63;;;10.92;98.20
25855;BME280;13680;49.936;11.344;2023-02-18T04:29:45;97220.16;;;10.77;99.07
25855;BME280;13680;49.936;11.344;2023-02-18T04:32:11;97220.59;;;10.84;99.82
25855;BME280;13680;49.936;11.344;2023-02-18T04:34:36;97226.28;;;11.02;98.19
25855;BME280;13680;49.936;11.344;2023-02-18T04:37:01;97228.59;;;10.89;98.78
25855;BME280;13680;49.936;11.344;2023-02-18T04:39:27;97234.72;;;11.14;97.48
25855;BME280;13680;49.936;11.344;2023-02-18T04:41:52;97229.97;;;10.87;98.22
25855;BME280;13680;49.936;11.344;2023-02-18T04:44:17;97222.94;;;11.10;96.94
25855;BME280;13680;49.936;11.344;2023-02-18T04:46:42;97223.50;;;11.07;97.14
25855;BME280;13680;49.936;11.344;2023-02-18T04:49:08;97233.72;;;11.10;96.51
25855;BME280;13680;49.936;11.344;2023-02-18T04:51:33;97237.56;;;11.04;96.80
25855;BME280;13680;49.936;11.344;2023-02-18T04:53:58;97245.59;;;10.66;99.70
25855;BME280;13680;49.936;11.344;2023-02-18T04:56:24;97246.44;;;10.61;100.00
25855;BME280;13680;49.936;11.344;2023-02-18T04:58:49;97243.91;;;10.70;98.30
25855;BME280;13680;49.936;11.344;2023-02-18T05:01:14;97241.69;;;10.77;98.30
25855;BME280;13680;49.936;11.344;2023-02-18T05:03:40;97242.66;;;10.62;99.51
25855;BME280;13680;49.936;11.344;2023-02-18T05:06:05;97241.09;;;10.80;97.16
25855;BME280;13680;49.936;11.344;2023-02-18T05:08:31;97229.03;;;10.53;98.84
25855;BME280;13680;49.936;11.344;2023-02-18T05:10:56;97235.66;;;10.85;96.91
25855;BME280;13680;49.936;11.344;2023-02-18T05:13:21;97229.00;;;10.77;97.00
25855;BME280;13680;49.936;11.344;2023-02-18T05:15:47;97217.97;;;10.79;96.38
25855;BME280;13680;49.936;11.344;2023-02-18T05:18:13;97211.28;;;10.95;94.56
25855;BME280;13680;49.936;11.344;2023-02-18T05:20:38;97215.00;;;10.80;94.86
25855;BME280;13680;49.936;11.344;2023-02-18T05:23:04;97207.63;;;10.67;95.90
25855;BME280;13680;49.936;11.344;2023-02-18T05:25:29;97213.09;;;10.81;94.31
25855;BME280;13680;49.936;11.344;2023-02-18T05:27:54;97194.41;;;10.71;95.18
25855;BME280;13680;49.936;11.344;2023-02-18T05:30:20;97209.03;;;10.84;94.29
25855;BME280;13680;49.936;11.344;2023-02-18T05:32:45;97209.19;;;10.92;93.50
25855;BME280;13680;49.936;11.344;2023-02-18T05:35:10;97213.25;;;10.90;92.78
25855;BME280;13680;49.936;11.344;2023-02-18T05:37:36;97202.56;;;11.04;92.28
25855;BME280;13680;49.936;11.344;2023-02-18T05:40:02;97197.84;;;10.95;92.68
25855;BME280;13680;49.936;11.344;2023-02-18T05:42:28;97208.91;;;11.13;91.31
25855;BME280;13680;49.936;11.344;2023-02-18T05:44:53;97201.13;;;10.92;92.08
25855;BME280;13680;49.936;11.344;2023-02-18T05:47:18;97198.72;;;10.91;91.93
25855;BME280;13680;49.936;11.344;2023-02-18T05:49:44;97197.81;;;10.76;92.50
25855;BME280;13680;49.936;11.344;2023-02-18T05:52:10;97200.53;;;10.95;91.62
25855;BME280;13680;49.936;11.344;2023-02-18T05:54:37;97192.88;;;10.64;92.26
25855;BME280;13680;49.936;11.344;2023-02-18T05:57:02;97198.13;;;10.94;91.59
25855;BME280;13680;49.936;11.344;2023-02-18T05:59:28;97189.91;;;10.85;92.20
25855;BME280;13680;49.936;11.344;2023-02-18T06:01:53;97194.13;;;10.91;91.41
25855;BME280;13680;49.936;11.344;2023-02-18T06:04:19;97187.75;;;10.87;91.75
25855;BME280;13680;49.936;11.344;2023-02-18T06:06:44;97195.72;;;10.92;90.58
25855;BME280;13680;49.936;11.344;2023-02-18T06:09:10;97187.16;;;10.90;91.61
25855;BME280;13680;49.936;11.344;2023-02-18T06:11:35;97188.53;;;10.88;91.35
25855;BME280;13680;49.936;11.344;2023-02-18T06:14:01;97179.00;;;10.76;92.26
25855;BME280;13680;49.936;11.344;2023-02-18T06:16:27;97178.66;;;10.83;91.93
25855;BME280;13680;49.936;11.344;2023-02-18T06:18:52;97180.00;;;10.61;93.70
25855;BME280;13680;49.936;11.344;2023-02-18T06:21:18;97176.31;;;10.76;92.77
25855;BME280;13680;49.936;11.344;2023-02-18T06:23:43;97169.75;;;10.63;94.32
25855;BME280;13680;49.936;11.344;2023-02-18T06:26:09;97175.16;;;10.83;93.52
25855;BME280;13680;49.936;11.344;2023-02-18T06:28:34;97170.44;;;10.93;92.35
25855;BME280;13680;49.936;11.344;2023-02-18T06:31:00;97171.88;;;10.67;95.11
25855;BME280;13680;49.936;11.344;2023-02-18T06:33:25;97167.59;;;10.66;95.59
25855;BME280;13680;49.936;11.344;2023-02-18T06:35:59;97161.84;;;10.91;93.97
25855;BME280;13680;49.936;11.344;2023-02-18T06:38:25;97159.59;;;10.99;93.16
25855;BME280;13680;49.936;11.344;2023-02-18T06:40:51;97161.06;;;10.72;94.19
25855;BME280;13680;49.936;11.344;2023-02-18T06:43:17;97156.53;;;10.86;95.25
25855;BME280;13680;49.936;11.344;2023-02-18T06:45:43;97153.91;;;10.62;96.04
25855;BME280;13680;49.936;11.344;2023-02-18T06:48:09;97153.94;;;10.38;100.00
25855;BME280;13680;49.936;11.344;2023-02-18T06:50:35;97152.59;;;10.78;96.77
25855;BME280;13680;49.936;11.344;2023-02-18T06:53:00;97148.44;;;10.48;99.78
25855;BME280;13680;49.936;11.344;2023-02-18T06:55:26;97141.03;;;10.78;97.30
25855;BME280;13680;49.936;11.344;2023-02-18T06:57:51;97132.53;;;10.90;96.64
25855;BME280;13680;49.936;11.344;2023-02-18T07:00:16;97141.78;;;10.64;97.30
25855;BME280;13680;49.936;11.344;2023-02-18T07:02:42;97130.22;;;10.83;97.46
25855;BME280;13680;49.936;11.344;2023-02-18T07:05:07;97129.56;;;10.91;96.55
25855;BME280;13680;49.936;11.344;2023-02-18T07:07:33;97117.84;;;11.01;96.19
25855;BME280;13680;49.936;11.344;2023-02-18T07:09:58;97117.31;;;10.99;96.16
25855;BME280;13680;49.936;11.344;2023-02-18T07:12:24;97124.19;;;10.91;97.13
25855;BME280;13680;49.936;11.344;2023-02-18T07:14:49;97118.06;;;11.05;96.73
25855;BME280;13680;49.936;11.344;2023-02-18T07:17:14;97116.63;;;10.93;97.83
25855;BME280;13680;49.936;11.344;2023-02-18T07:19:40;97110.34;;;10.79;98.51
25855;BME280;13680;49.936;11.344;2023-02-18T07:22:05;97103.53;;;10.68;100.00
25855;BME280;13680;49.936;11.344;2023-02-18T07:24:30;97116.41;;;10.90;99.51
25855;BME280;13680;49.936;11.344;2023-02-18T07:26:56;97110.44;;;10.74;100.00
25855;BME280;13680;49.936;11.344;2023-02-18T07:29:21;97106.44;;;10.52;100.00
25855;BME280;13680;49.936;11.344;2023-02-18T07:31:46;97106.38;;;10.57;100.00
25855;BME280;13680;49.936;11.344;2023-02-18T07:34:12;97104.41;;;10.82;100.00
25855;BME280;13680;49.936;11.344;2023-02-18T07:36:37;97102.72;;;10.86;100.00
25855;BME280;13680;49.936;11.344;2023-02-18T07:39:03;97098.88;;;10.92;98.95
25855;BME280;13680;49.936;11.344;2023-02-18T07:41:28;97098.22;;;10.62;100.00
25855;BME280;13680;49.936;11.344;2023-02-18T07:43:53;97107.38;;;10.42;100.00
25855;BME280;13680;49.936;11.344;2023-02-18T07:46:19;97111.09;;;10.22;100.00
25855;BME280;13680;49.936;11.344;2023-02-18T07:48:44;97108.63;;;10.50;100.00
25855;BME280;13680;49.936;11.344;2023-02-18T07:51:11;97105.31;;;10.34;100.00
25855;BME280;13680;49.936;11.344;2023-02-18T07:53:37;97115.59;;;10.27;100.00
25855;BME280;13680;49.936;11.344;2023-02-18T07:56:03;97097.44;;;10.43;100.00
25855;BME280;13680;49.936;11.344;2023-02-18T07:58:32;97096.97;;;10.36;100.00
25855;BME280;13680;49.936;11.344;2023-02-18T08:00:58;97093.06;;;10.66;100.00
25855;BME280;13680;49.936;11.344;2023-02-18T08:03:26;97096.50;;;10.53;100.00
25855;BME280;13680;49.936;11.344;2023-02-18T08:05:52;97108.81;;;10.35;100.00
25855;BME280;13680;49.936;11.344;2023-02-18T08:08:20;97094.97;;;10.22;100.00
25855;BME280;13680;49.936;11.344;2023-02-18T08:10:46;97115.28;;;10.34;100.00
25855;BME280;13680;49.936;11.344;2023-02-18T08:13:12;97109.44;;;10.26;100.00
25855;BME280;13680;49.936;11.344;2023-02-18T08:15:38;97110.59;;;10.20;100.00
25855;BME280;13680;49.936;11.344;2023-02-18T08:18:04;97108.38;;;10.03;100.00
25855;BME280;13680;49.936;11.344;2023-02-18T08:20:30;97109.72;;;10.25;100.00
25855;BME280;13680;49.936;11.344;2023-02-18T08:22:56;97106.69;;;10.31;100.00
25855;BME280;13680;49.936;11.344;2023-02-18T08:25:21;97091.34;;;10.37;98.97
25855;BME280;13680;49.936;11.344;2023-02-18T08:27:46;97097.34;;;10.67;97.75
25855;BME280;13680;49.936;11.344;2023-02-18T08:30:12;97091.63;;;10.30;98.42
25855;BME280;13680;49.936;11.344;2023-02-18T08:32:38;97096.06;;;10.21;98.56
25855;BME280;13680;49.936;11.344;2023-02-18T08:35:04;97087.63;;;10.28;98.84
25855;BME280;13680;49.936;11.344;2023-02-18T08:37:30;97079.47;;;10.14;99.33
25855;BME280;13680;49.936;11.344;2023-02-18T08:39:55;97078.94;;;10.17;98.53
25855;BME280;13680;49.936;11.344;2023-02-18T08:42:20;97071.81;;;10.26;98.30
25855;BME280;13680;49.936;11.344;2023-02-18T08:44:46;97079.78;;;10.56;96.26
25855;BME280;13680;49.936;11.344;2023-02-18T08:47:11;97074.16;;;10.52;95.04
25855;BME280;13680;49.936;11.344;2023-02-18T08:49:37;97070.53;;;10.81;92.67
25855;BME280;13680;49.936;11.344;2023-02-18T08:52:03;97072.22;;;10.39;94.65
25855;BME280;13680;49.936;11.344;2023-02-18T08:54:29;97055.41;;;10.47;95.16
25855;BME280;13680;49.936;11.344;2023-02-18T08:56:55;97068.34;;;10.26;91.70
25855;BME280;13680;49.936;11.344;2023-02-18T08:59:25;97069.03;;;10.31;93.98
25855;BME280;13680;49.936;11.344;2023-02-18T09:01:51;97071.91;;;10.59;93.12
25855;BME280;13680;49.936;11.344;2023-02-18T09:04:16;97067.47;;;10.69;91.55
25855;BME280;13680;49.936;11.344;2023-02-18T09:06:42;97069.53;;;10.58;92.52
25855;BME280;13680;49.936;11.344;2023-02-18T09:09:07;97068.78;;;10.71;91.67
25855;BME280;13680;49.936;11.344;2023-02-18T09:11:33;97080.19;;;10.82;90.77
25855;BME280;13680;49.936;11.344;2023-02-18T09:13:58;97075.78;;;10.53;92.59
25855;BME280;13680;49.936;11.344;2023-02-18T09:16:24;97082.59;;;10.64;92.18
25855;BME280;13680;49.936;11.344;2023-02-18T09:18:49;97082.94;;;10.96;90.75
25855;BME280;13680;49.936;11.344;2023-02-18T09:21:16;97077.69;;;11.05;88.78
25855;BME280;13680;49.936;11.344;2023-02-18T09:23:43;97080.44;;;10.67;91.19
25855;BME280;13680;49.936;11.344;2023-02-18T09:26:10;97086.13;;;10.98;89.78
25855;BME280;13680;49.936;11.344;2023-02-18T09:28:38;97084.69;;;10.68;89.91
25855;BME280;13680;49.936;11.344;2023-02-18T09:31:15;97073.13;;;10.86;90.32
25855;BME280;13680;49.936;11.344;2023-02-18T09:33:44;97072.22;;;11.10;87.72
25855;BME280;13680;49.936;11.344;2023-02-18T09:36:09;97078.31;;;11.16;87.88
25855;BME280;13680;49.936;11.344;2023-02-18T09:38:34;97071.16;;;10.92;88.47
25855;BME280;13680;49.936;11.344;2023-02-18T09:41:03;97067.63;;;10.58;90.29
25855;BME280;13680;49.936;11.344;2023-02-18T09:43:33;97071.53;;;10.85;89.59
25855;BME280;13680;49.936;11.344;2023-02-18T09:46:00;97070.41;;;10.53;88.96
25855;BME280;13680;49.936;11.344;2023-02-18T09:48:32;97076.69;;;10.81;87.10
25855;BME280;13680;49.936;11.344;2023-02-18T09:50:59;97062.81;;;10.93;86.42
25855;BME280;13680;49.936;11.344;2023-02-18T09:53:25;97039.63;;;11.11;85.75
25855;BME280;13680;49.936;11.344;2023-02-18T09:55:53;97056.72;;;11.35;85.00
25855;BME280;13680;49.936;11.344;2023-02-18T09:58:23;97055.16;;;10.81;85.50
25855;BME280;13680;49.936;11.344;2023-02-18T10:03:49;97040.47;;;10.93;85.39
25855;BME280;13680;49.936;11.344;2023-02-18T10:06:19;97033.59;;;11.61;83.42
25855;BME280;13680;49.936;11.344;2023-02-18T10:08:48;97025.00;;;11.18;85.29
25855;BME280;13680;49.936;11.344;2023-02-18T10:11:23;97027.91;;;11.49;84.67
25855;BME280;13680;49.936;11.344;2023-02-18T10:13:53;97025.38;;;11.25;84.75
25855;BME280;13680;49.936;11.344;2023-02-18T10:16:20;97023.72;;;11.43;84.61
25855;BME280;13680;49.936;11.344;2023-02-18T10:18:54;97027.50;;;11.84;81.39
25855;BME280;13680;49.936;11.344;2023-02-18T10:21:23;97010.16;;;11.20;83.47
25855;BME280;13680;49.936;11.344;2023-02-18T10:24:27;97019.03;;;11.35;83.63
25855;BME280;13680;49.936;11.344;2023-02-18T10:26:54;97020.25;;;11.56;82.38
25855;BME280;13680;49.936;11.344;2023-02-18T10:29:20;97032.41;;;11.68;81.11
25855;BME280;13680;49.936;11.344;2023-02-18T10:32:06;97020.84;;;11.53;82.62
25855;BME280;13680;49.936;11.344;2023-02-18T10:34:47;97023.38;;;11.03;82.49
25855;BME280;13680;49.936;11.344;2023-02-18T10:50:03;96995.59;;;11.35;80.36
25855;BME280;13680;49.936;11.344;2023-02-18T10:52:43;97007.63;;;11.24;80.46
25855;BME280;13680;49.936;11.344;2023-02-18T10:55:14;96999.47;;;11.15;81.66
25855;BME280;13680;49.936;11.344;2023-02-18T10:57:48;96998.28;;;11.35;80.49
25855;BME280;13680;49.936;11.344;2023-02-18T11:00:18;96996.50;;;11.58;79.57
25855;BME280;13680;49.936;11.344;2023-02-18T11:02:45;96995.09;;;11.47;78.68
25855;BME280;13680;49.936;11.344;2023-02-18T11:05:25;97007.66;;;11.38;79.10
25855;BME280;13680;49.936;11.344;2023-02-18T11:07:53;96996.94;;;10.91;80.59
25855;BME280;13680;49.936;11.344;2023-02-18T11:10:28;96992.69;;;11.45;78.22
25855;BME280;13680;49.936;11.344;2023-02-18T11:13:01;96990.41;;;11.53;78.07
25855;BME280;13680;49.936;11.344;2023-02-18T11:15:28;96988.88;;;11.05;78.14
25855;BME280;13680;49.936;11.344;2023-02-18T11:17:55;96992.16;;;11.02;79.31
25855;BME280;13680;49.936;11.344;2023-02-18T11:20:23;96986.78;;;11.02;78.89
25855;BME280;13680;49.936;11.344;2023-02-18T11:22:49;96984.81;;;11.07;78.43
25855;BME280;13680;49.936;11.344;2023-02-18T11:25:19;96975.84;;;11.26;77.90
25855;BME280;13680;49.936;11.344;2023-02-18T11:27:54;96986.59;;;11.82;75.91
25855;BME280;13680;49.936;11.344;2023-02-18T11:30:26;96967.31;;;11.88;75.20
25855;BME280;13680;49.936;11.344;2023-02-18T11:33:05;96969.25;;;11.74;75.32
25855;BME280;13680;49.936;11.344;2023-02-18T11:35:32;96978.94;;;11.47;75.64
25855;BME280;13680;49.936;11.344;2023-02-18T11:37:59;96956.28;;;11.62;74.88
25855;BME280;13680;49.936;11.344;2023-02-18T11:40:31;96962.91;;;11.28;76.15
25855;BME280;13680;49.936;11.344;2023-02-18T11:43:11;96959.47;;;11.22;76.05
25855;BME280;13680;49.936;11.344;2023-02-18T11:45:37;96948.63;;;11.55;73.90
25855;BME280;13680;49.936;11.344;2023-02-18T11:50:38;96951.13;;;11.10;76.13
25855;BME280;13680;49.936;11.344;2023-02-18T11:55:53;96943.22;;;11.27;75.05
25855;BME280;13680;49.936;11.344;2023-02-18T11:58:20;96945.94;;;11.27;73.86
25855;BME280;13680;49.936;11.344;2023-02-18T12:00:47;96943.91;;;10.91;75.02
25855;BME280;13680;49.936;11.344;2023-02-18T12:05:51;96926.28;;;11.41;73.43
25855;BME280;13680;49.936;11.344;2023-02-18T12:08:21;96932.84;;;11.62;72.59
25855;BME280;13680;49.936;11.344;2023-02-18T12:10:53;96933.16;;;11.47;72.85
25855;BME280;13680;49.936;11.344;2023-02-18T12:16:10;96931.78;;;11.08;73.56
25855;BME280;13680;49.936;11.344;2023-02-18T12:19:17;96919.50;;;11.29;72.46
25855;BME280;13680;49.936;11.344;2023-02-18T12:30:20;96924.88;;;11.57;72.39
25855;BME280;13680;49.936;11.344;2023-02-18T12:35:48;96924.66;;;11.68;70.68
25855;BME280;13680;49.936;11.344;2023-02-18T12:41:18;96918.13;;;11.18;72.42
25855;BME280;13680;49.936;11.344;2023-02-18T12:43:54;96895.41;;;11.75;70.49
25855;BME280;13680;49.936;11.344;2023-02-18T12:46:47;96916.06;;;11.66;70.03
25855;BME280;13680;49.936;11.344;2023-02-18T12:49:36;96905.41;;;11.60;70.31
25855;BME280;13680;49.936;11.344;2023-02-18T12:55:31;96908.53;;;11.54;70.20
25855;BME280;13680;49.936;11.344;2023-02-18T13:07:37;96903.88;;;11.18;71.13
25855;BME280;13680;49.936;11.344;2023-02-18T13:09:50;96907.00;;;11.61;70.08
25855;BME280;13680;49.936;11.344;2023-02-18T13:12:27;96902.28;;;11.81;69.20
25855;BME280;13680;49.936;11.344;2023-02-18T13:15:02;96895.50;;;11.70;69.21
25855;BME280;13680;49.936;11.344;2023-02-18T13:17:33;96922.88;;;11.21;69.77
25855;BME280;13680;49.936;11.344;2023-02-18T13:20:05;96904.75;;;11.27;70.76
25855;BME280;13680;49.936;11.344;2023-02-18T13:22:33;96909.16;;;11.23;70.14
25855;BME280;13680;49.936;11.344;2023-02-18T13:24:59;96902.47;;;11.20;71.10
25855;BME280;13680;49.936;11.344;2023-02-18T13:41:15;96888.31;;;11.01;71.20
25855;BME280;13680;49.936;11.344;2023-02-18T13:43:41;96885.31;;;11.16;71.05
25855;BME280;13680;49.936;11.344;2023-02-18T13:46:11;96891.59;;;10.84;70.82
25855;BME280;13680;49.936;11.344;2023-02-18T13:51:16;96877.94;;;11.22;70.32
25855;BME280;13680;49.936;11.344;2023-02-18T13:53:50;96876.66;;;11.05;70.19
25855;BME280;13680;49.936;11.344;2023-02-18T13:56:25;96862.16;;;11.43;69.16
25855;BME280;13680;49.936;11.344;2023-02-18T13:59:00;96876.34;;;11.35;70.16
25855;BME280;13680;49.936;11.344;2023-02-18T14:01:42;96855.69;;;11.30;70.52
25855;BME280;13680;49.936;11.344;2023-02-18T14:09:58;96879.03;;;11.07;71.33
25855;BME280;13680;49.936;11.344;2023-02-18T14:12:59;96888.72;;;11.08;71.84
25855;BME280;13680;49.936;11.344;2023-02-18T14:25:53;96877.84;;;10.85;72.89
25855;BME280;13680;49.936;11.344;2023-02-18T14:31:01;96871.25;;;10.77;72.07
25855;BME280;13680;49.936;11.344;2023-02-18T14:33:29;96873.63;;;10.79;72.95
25855;BME280;13680;49.936;11.344;2023-02-18T14:36:05;96870.47;;;11.05;70.56
25855;BME280;13680;49.936;11.344;2023-02-18T14:38:56;96876.44;;;10.88;71.19
25855;BME280;13680;49.936;11.344;2023-02-18T14:49:51;96883.97;;;11.55;68.46
25855;BME280;13680;49.936;11.344;2023-02-18T14:52:37;96882.91;;;11.28;68.97
25855;BME280;13680;49.936;11.344;2023-02-18T14:55:06;96882.34;;;11.32;69.42
25855;BME280;13680;49.936;11.344;2023-02-18T14:57:40;96879.84;;;10.93;69.46
25855;BME280;13680;49.936;11.344;2023-02-18T15:00:23;96887.13;;;11.07;69.93